sensor_id;sensor_type;location;lat;lon;timestamp;P1;durP1;ratioP1;P2;durP2;ratioP2
59263;SDS011;45030;42.720;23.344;2022-08-21T00:01:02;16.67;;;8.77;;
59263;SDS011;45030;42.720;23.344;2022-08-21T00:03:28;17.00;;;8.48;;
59263;SDS011;45030;42.720;23.344;2022-08-21T00:05:53;19.92;;;8.93;;
59263;SDS011;45030;42.720;23.344;2022-08-21T00:08:19;17.58;;;9.32;;
59263;SDS011;45030;42.720;23.344;2022-08-21T00:10:45;19.13;;;9.52;;
59263;SDS011;45030;42.720;23.344;2022-08-21T00:13:12;19.42;;;8.43;;
59263;SDS011;45030;42.720;23.344;2022-08-21T00:15:37;16.92;;;8.05;;
59263;SDS011;45030;42.720;23.344;2022-08-21T00:18:03;15.75;;;7.75;;
59263;SDS011;45030;42.720;23.344;2022-08-21T00:20:29;16.33;;;8.60;;
59263;SDS011;45030;42.720;23.344;2022-08-21T00:22:54;21.02;;;8.65;;
59263;SDS011;45030;42.720;23.344;2022-08-21T00:25:19;20.27;;;8.77;;
59263;SDS011;45030;42.720;23.344;2022-08-21T00:27:45;23.27;;;10.05;;
59263;SDS011;45030;42.720;23.344;2022-08-21T00:30:12;17.75;;;8.05;;
59263;SDS011;45030;42.720;23.344;2022-08-21T00:32:38;22.63;;;8.98;;
59263;SDS011;45030;42.720;23.344;2022-08-21T00:35:07;24.83;;;9.95;;
59263;SDS011;45030;42.720;23.344;2022-08-21T00:37:33;27.95;;;11.90;;
59263;SDS011;45030;42.720;23.344;2022-08-21T00:39:58;23.83;;;10.48;;
59263;SDS011;45030;42.720;23.344;2022-08-21T00:42:24;21.92;;;9.90;;
59263;SDS011;45030;42.720;23.344;2022-08-21T00:44:49;25.40;;;10.88;;
59263;SDS011;45030;42.720;23.344;2022-08-21T00:47:15;22.80;;;10.43;;
59263;SDS011;45030;42.720;23.344;2022-08-21T00:49:41;22.45;;;9.80;;
59263;SDS011;45030;42.720;23.344;2022-08-21T00:52:09;23.40;;;9.82;;
59263;SDS011;45030;42.720;23.344;2022-08-21T00:54:35;29.10;;;11.90;;
59263;SDS011;45030;42.720;23.344;2022-08-21T00:57:12;24.52;;;11.43;;
59263;SDS011;45030;42.720;23.344;2022-08-21T00:59:38;24.13;;;9.48;;
59263;SDS011;45030;42.720;23.344;2022-08-21T01:02:06;23.63;;;10.43;;
59263;SDS011;45030;42.720;23.344;2022-08-21T01:04:32;25.33;;;11.40;;
59263;SDS011;45030;42.720;23.344;2022-08-21T01:06:57;22.67;;;9.82;;
59263;SDS011;45030;42.720;23.344;2022-08-21T01:09:22;20.77;;;9.40;;
59263;SDS011;45030;42.720;23.344;2022-08-21T01:11:48;30.20;;;10.70;;
59263;SDS011;45030;42.720;23.344;2022-08-21T01:14:13;23.90;;;11.20;;
59263;SDS011;45030;42.720;23.344;2022-08-21T01:16:43;21.27;;;9.55;;
59263;SDS011;45030;42.720;23.344;2022-08-21T01:19:10;24.33;;;10.93;;
59263;SDS011;45030;42.720;23.344;2022-08-21T01:21:36;26.40;;;8.63;;
59263;SDS011;45030;42.720;23.344;2022-08-21T01:24:01;21.33;;;9.20;;
59263;SDS011;45030;42.720;23.344;2022-08-21T01:26:28;23.00;;;9.88;;
59263;SDS011;45030;42.720;23.344;2022-08-21T01:28:55;19.52;;;9.32;;
59263;SDS011;45030;42.720;23.344;2022-08-21T01:31:22;20.48;;;8.57;;
59263;SDS011;45030;42.720;23.344;2022-08-21T01:33:48;18.63;;;8.02;;
59263;SDS011;45030;42.720;23.344;2022-08-21T01:36:13;16.00;;;7.88;;
59263;SDS011;45030;42.720;23.344;2022-08-21T01:38:38;15.65;;;8.20;;
59263;SDS011;45030;42.720;23.344;2022-08-21T01:41:04;20.75;;;8.50;;
59263;SDS011;45030;42.720;23.344;2022-08-21T01:43:29;19.65;;;8.13;;
59263;SDS011;45030;42.720;23.344;2022-08-21T01:45:54;21.25;;;8.98;;
59263;SDS011;45030;42.720;23.344;2022-08-21T01:48:19;20.27;;;9.90;;
59263;SDS011;45030;42.720;23.344;2022-08-21T01:50:45;21.38;;;9.80;;
59263;SDS011;45030;42.720;23.344;2022-08-21T01:53:10;20.23;;;9.55;;
59263;SDS011;45030;42.720;23.344;2022-08-21T01:55:35;18.90;;;8.85;;
59263;SDS011;45030;42.720;23.344;2022-08-21T01:58:00;25.42;;;11.13;;
59263;SDS011;45030;42.720;23.344;2022-08-21T02:00:26;20.63;;;9.00;;
59263;SDS011;45030;42.720;23.344;2022-08-21T02:02:51;16.23;;;8.02;;
59263;SDS011;45030;42.720;23.344;2022-08-21T02:05:17;15.65;;;7.75;;
59263;SDS011;45030;42.720;23.344;2022-08-21T02:07:44;15.95;;;7.40;;
59263;SDS011;45030;42.720;23.344;2022-08-21T02:10:10;15.95;;;7.78;;
59263;SDS011;45030;42.720;23.344;2022-08-21T02:12:36;12.50;;;6.75;;
59263;SDS011;45030;42.720;23.344;2022-08-21T02:15:02;12.68;;;7.05;;
59263;SDS011;45030;42.720;23.344;2022-08-21T02:17:36;13.43;;;6.50;;
59263;SDS011;45030;42.720;23.344;2022-08-21T02:20:01;16.77;;;7.05;;
59263;SDS011;45030;42.720;23.344;2022-08-21T02:22:26;13.13;;;6.45;;
59263;SDS011;45030;42.720;23.344;2022-08-21T02:24:51;11.88;;;6.72;;
59263;SDS011;45030;42.720;23.344;2022-08-21T02:27:17;14.80;;;7.15;;
59263;SDS011;45030;42.720;23.344;2022-08-21T02:29:42;12.80;;;6.18;;
59263;SDS011;45030;42.720;23.344;2022-08-21T02:32:07;15.27;;;6.68;;
59263;SDS011;45030;42.720;23.344;2022-08-21T02:34:33;12.70;;;6.68;;
59263;SDS011;45030;42.720;23.344;2022-08-21T02:36:58;13.25;;;6.28;;
59263;SDS011;45030;42.720;23.344;2022-08-21T02:39:23;14.57;;;6.90;;
59263;SDS011;45030;42.720;23.344;2022-08-21T02:41:48;12.98;;;6.15;;
59263;SDS011;45030;42.720;23.344;2022-08-21T02:44:14;11.60;;;5.70;;
59263;SDS011;45030;42.720;23.344;2022-08-21T02:46:39;10.65;;;4.88;;
59263;SDS011;45030;42.720;23.344;2022-08-21T02:49:04;11.32;;;5.40;;
59263;SDS011;45030;42.720;23.344;2022-08-21T02:51:29;7.50;;;5.03;;
59263;SDS011;45030;42.720;23.344;2022-08-21T02:53:55;8.57;;;4.50;;
59263;SDS011;45030;42.720;23.344;2022-08-21T02:56:21;11.23;;;4.32;;
59263;SDS011;45030;42.720;23.344;2022-08-21T02:58:48;10.43;;;5.75;;
59263;SDS011;45030;42.720;23.344;2022-08-21T03:01:14;15.43;;;6.85;;
59263;SDS011;45030;42.720;23.344;2022-08-21T03:03:41;9.88;;;5.43;;
59263;SDS011;45030;42.720;23.344;2022-08-21T03:06:08;8.40;;;5.05;;
59263;SDS011;45030;42.720;23.344;2022-08-21T03:08:34;11.48;;;6.32;;
59263;SDS011;45030;42.720;23.344;2022-08-21T03:10:59;13.13;;;6.43;;
59263;SDS011;45030;42.720;23.344;2022-08-21T03:13:26;18.60;;;8.48;;
59263;SDS011;45030;42.720;23.344;2022-08-21T03:15:52;18.80;;;9.23;;
59263;SDS011;45030;42.720;23.344;2022-08-21T03:18:17;14.88;;;7.50;;
59263;SDS011;45030;42.720;23.344;2022-08-21T03:20:43;15.50;;;8.15;;
59263;SDS011;45030;42.720;23.344;2022-08-21T03:23:10;14.38;;;6.85;;
59263;SDS011;45030;42.720;23.344;2022-08-21T03:25:35;9.98;;;5.78;;
59263;SDS011;45030;42.720;23.344;2022-08-21T03:28:01;15.05;;;7.28;;
59263;SDS011;45030;42.720;23.344;2022-08-21T03:30:26;16.20;;;7.82;;
59263;SDS011;45030;42.720;23.344;2022-08-21T03:32:52;15.48;;;8.05;;
59263;SDS011;45030;42.720;23.344;2022-08-21T03:35:18;13.65;;;7.25;;
59263;SDS011;45030;42.720;23.344;2022-08-21T03:37:43;14.30;;;7.95;;
59263;SDS011;45030;42.720;23.344;2022-08-21T03:40:09;18.67;;;7.95;;
59263;SDS011;45030;42.720;23.344;2022-08-21T03:42:35;17.95;;;8.32;;
59263;SDS011;45030;42.720;23.344;2022-08-21T03:45:00;13.85;;;7.38;;
59263;SDS011;45030;42.720;23.344;2022-08-21T03:47:26;18.40;;;8.80;;
59263;SDS011;45030;42.720;23.344;2022-08-21T03:49:51;18.58;;;7.63;;
59263;SDS011;45030;42.720;23.344;2022-08-21T03:52:16;15.27;;;8.82;;
59263;SDS011;45030;42.720;23.344;2022-08-21T03:54:42;20.00;;;9.90;;
59263;SDS011;45030;42.720;23.344;2022-08-21T03:57:07;30.80;;;12.55;;
59263;SDS011;45030;42.720;23.344;2022-08-21T03:59:33;21.10;;;9.68;;
59263;SDS011;45030;42.720;23.344;2022-08-21T04:02:00;19.38;;;9.98;;
59263;SDS011;45030;42.720;23.344;2022-08-21T04:04:26;16.58;;;8.90;;
59263;SDS011;45030;42.720;23.344;2022-08-21T04:06:52;19.63;;;8.65;;
59263;SDS011;45030;42.720;23.344;2022-08-21T04:09:17;21.35;;;10.10;;
59263;SDS011;45030;42.720;23.344;2022-08-21T04:11:42;19.17;;;8.65;;
59263;SDS011;45030;42.720;23.344;2022-08-21T04:14:08;18.02;;;9.15;;
59263;SDS011;45030;42.720;23.344;2022-08-21T04:16:33;20.98;;;8.73;;
59263;SDS011;45030;42.720;23.344;2022-08-21T04:18:59;16.88;;;8.63;;
59263;SDS011;45030;42.720;23.344;2022-08-21T04:21:25;13.63;;;7.65;;
59263;SDS011;45030;42.720;23.344;2022-08-21T04:23:50;15.35;;;7.28;;
59263;SDS011;45030;42.720;23.344;2022-08-21T04:26:16;17.05;;;8.77;;
59263;SDS011;45030;42.720;23.344;2022-08-21T04:28:42;16.23;;;9.32;;
59263;SDS011;45030;42.720;23.344;2022-08-21T04:31:08;17.85;;;8.63;;
59263;SDS011;45030;42.720;23.344;2022-08-21T04:33:33;20.63;;;9.30;;
59263;SDS011;45030;42.720;23.344;2022-08-21T04:35:58;18.48;;;8.35;;
59263;SDS011;45030;42.720;23.344;2022-08-21T04:38:23;17.13;;;8.93;;
59263;SDS011;45030;42.720;23.344;2022-08-21T04:40:49;18.70;;;8.75;;
59263;SDS011;45030;42.720;23.344;2022-08-21T04:43:15;17.20;;;7.75;;
59263;SDS011;45030;42.720;23.344;2022-08-21T04:45:41;16.92;;;8.35;;
59263;SDS011;45030;42.720;23.344;2022-08-21T04:48:08;17.92;;;9.25;;
59263;SDS011;45030;42.720;23.344;2022-08-21T04:50:38;15.23;;;7.18;;
59263;SDS011;45030;42.720;23.344;2022-08-21T04:53:08;15.38;;;7.00;;
59263;SDS011;45030;42.720;23.344;2022-08-21T04:55:34;14.68;;;7.95;;
59263;SDS011;45030;42.720;23.344;2022-08-21T04:57:59;14.00;;;6.68;;
59263;SDS011;45030;42.720;23.344;2022-08-21T05:00:25;17.90;;;9.10;;
59263;SDS011;45030;42.720;23.344;2022-08-21T05:02:51;18.50;;;9.85;;
59263;SDS011;45030;42.720;23.344;2022-08-21T05:05:19;17.02;;;9.32;;
59263;SDS011;45030;42.720;23.344;2022-08-21T05:07:44;15.63;;;8.70;;
59263;SDS011;45030;42.720;23.344;2022-08-21T05:10:10;15.55;;;7.68;;
59263;SDS011;45030;42.720;23.344;2022-08-21T05:12:36;14.95;;;8.13;;
59263;SDS011;45030;42.720;23.344;2022-08-21T05:15:02;15.70;;;7.85;;
59263;SDS011;45030;42.720;23.344;2022-08-21T05:17:27;14.25;;;7.88;;
59263;SDS011;45030;42.720;23.344;2022-08-21T05:19:52;13.80;;;7.70;;
59263;SDS011;45030;42.720;23.344;2022-08-21T05:22:21;14.25;;;8.05;;
59263;SDS011;45030;42.720;23.344;2022-08-21T05:24:47;15.20;;;9.15;;
59263;SDS011;45030;42.720;23.344;2022-08-21T05:27:12;16.63;;;8.65;;
59263;SDS011;45030;42.720;23.344;2022-08-21T05:29:37;15.18;;;7.72;;
59263;SDS011;45030;42.720;23.344;2022-08-21T05:32:07;12.18;;;7.75;;
59263;SDS011;45030;42.720;23.344;2022-08-21T05:34:32;11.70;;;6.95;;
59263;SDS011;45030;42.720;23.344;2022-08-21T05:36:58;10.35;;;6.78;;
59263;SDS011;45030;42.720;23.344;2022-08-21T05:39:23;15.70;;;8.13;;
59263;SDS011;45030;42.720;23.344;2022-08-21T05:41:48;17.27;;;6.95;;
59263;SDS011;45030;42.720;23.344;2022-08-21T05:44:14;14.40;;;6.97;;
59263;SDS011;45030;42.720;23.344;2022-08-21T05:46:39;11.07;;;6.88;;
59263;SDS011;45030;42.720;23.344;2022-08-21T05:49:04;12.60;;;6.43;;
59263;SDS011;45030;42.720;23.344;2022-08-21T05:51:30;14.85;;;7.38;;
59263;SDS011;45030;42.720;23.344;2022-08-21T05:53:55;17.45;;;8.98;;
59263;SDS011;45030;42.720;23.344;2022-08-21T05:56:20;14.20;;;7.00;;
59263;SDS011;45030;42.720;23.344;2022-08-21T05:58:46;13.57;;;7.13;;
59263;SDS011;45030;42.720;23.344;2022-08-21T06:01:11;12.32;;;6.97;;
59263;SDS011;45030;42.720;23.344;2022-08-21T06:03:38;12.48;;;6.90;;
59263;SDS011;45030;42.720;23.344;2022-08-21T06:06:03;13.85;;;6.45;;
59263;SDS011;45030;42.720;23.344;2022-08-21T06:08:29;10.60;;;6.60;;
59263;SDS011;45030;42.720;23.344;2022-08-21T06:10:55;9.27;;;5.82;;
59263;SDS011;45030;42.720;23.344;2022-08-21T06:13:21;8.48;;;5.78;;
59263;SDS011;45030;42.720;23.344;2022-08-21T06:15:47;11.40;;;6.63;;
59263;SDS011;45030;42.720;23.344;2022-08-21T06:18:12;12.70;;;7.22;;
59263;SDS011;45030;42.720;23.344;2022-08-21T06:20:38;13.73;;;5.78;;
59263;SDS011;45030;42.720;23.344;2022-08-21T06:23:03;14.90;;;8.07;;
59263;SDS011;45030;42.720;23.344;2022-08-21T06:25:28;13.50;;;6.53;;
59263;SDS011;45030;42.720;23.344;2022-08-21T06:27:59;12.73;;;6.95;;
59263;SDS011;45030;42.720;23.344;2022-08-21T06:30:25;9.63;;;5.85;;
59263;SDS011;45030;42.720;23.344;2022-08-21T06:32:50;8.93;;;5.27;;
59263;SDS011;45030;42.720;23.344;2022-08-21T06:35:15;8.77;;;6.07;;
59263;SDS011;45030;42.720;23.344;2022-08-21T06:37:41;11.60;;;5.25;;
59263;SDS011;45030;42.720;23.344;2022-08-21T06:40:06;10.48;;;6.25;;
59263;SDS011;45030;42.720;23.344;2022-08-21T06:42:32;13.75;;;6.85;;
59263;SDS011;45030;42.720;23.344;2022-08-21T06:44:57;13.48;;;6.57;;
59263;SDS011;45030;42.720;23.344;2022-08-21T06:47:23;10.68;;;5.97;;
59263;SDS011;45030;42.720;23.344;2022-08-21T06:49:49;11.93;;;5.82;;
59263;SDS011;45030;42.720;23.344;2022-08-21T06:52:14;11.75;;;5.82;;
59263;SDS011;45030;42.720;23.344;2022-08-21T06:54:40;11.32;;;6.22;;
59263;SDS011;45030;42.720;23.344;2022-08-21T06:57:05;9.43;;;5.60;;
59263;SDS011;45030;42.720;23.344;2022-08-21T06:59:31;14.05;;;7.80;;
59263;SDS011;45030;42.720;23.344;2022-08-21T07:01:56;9.85;;;7.10;;
59263;SDS011;45030;42.720;23.344;2022-08-21T07:04:22;10.05;;;6.07;;
59263;SDS011;45030;42.720;23.344;2022-08-21T07:06:47;11.63;;;6.13;;
59263;SDS011;45030;42.720;23.344;2022-08-21T07:09:12;11.98;;;7.35;;
59263;SDS011;45030;42.720;23.344;2022-08-21T07:11:37;10.00;;;6.45;;
59263;SDS011;45030;42.720;23.344;2022-08-21T07:14:03;13.82;;;6.28;;
59263;SDS011;45030;42.720;23.344;2022-08-21T07:16:29;9.05;;;5.35;;
59263;SDS011;45030;42.720;23.344;2022-08-21T07:18:54;10.32;;;4.85;;
59263;SDS011;45030;42.720;23.344;2022-08-21T07:21:19;9.48;;;4.25;;
59263;SDS011;45030;42.720;23.344;2022-08-21T07:23:45;8.45;;;4.57;;
59263;SDS011;45030;42.720;23.344;2022-08-21T07:26:12;7.70;;;5.20;;
59263;SDS011;45030;42.720;23.344;2022-08-21T07:28:37;9.20;;;4.75;;
59263;SDS011;45030;42.720;23.344;2022-08-21T07:31:03;7.55;;;4.97;;
59263;SDS011;45030;42.720;23.344;2022-08-21T07:33:30;8.50;;;5.10;;
59263;SDS011;45030;42.720;23.344;2022-08-21T07:35:55;10.98;;;6.53;;
59263;SDS011;45030;42.720;23.344;2022-08-21T07:38:21;7.90;;;5.30;;
59263;SDS011;45030;42.720;23.344;2022-08-21T07:40:46;7.43;;;4.95;;
59263;SDS011;45030;42.720;23.344;2022-08-21T07:43:12;11.98;;;6.20;;
59263;SDS011;45030;42.720;23.344;2022-08-21T07:45:37;12.00;;;6.85;;
59263;SDS011;45030;42.720;23.344;2022-08-21T07:48:03;8.43;;;6.10;;
59263;SDS011;45030;42.720;23.344;2022-08-21T07:50:29;10.50;;;7.28;;
59263;SDS011;45030;42.720;23.344;2022-08-21T07:52:54;9.60;;;6.70;;
59263;SDS011;45030;42.720;23.344;2022-08-21T07:55:20;9.70;;;6.60;;
59263;SDS011;45030;42.720;23.344;2022-08-21T07:57:46;8.30;;;5.95;;
59263;SDS011;45030;42.720;23.344;2022-08-21T08:00:13;10.48;;;6.53;;
59263;SDS011;45030;42.720;23.344;2022-08-21T08:02:39;10.07;;;6.35;;
59263;SDS011;45030;42.720;23.344;2022-08-21T08:05:05;10.07;;;6.32;;
59263;SDS011;45030;42.720;23.344;2022-08-21T08:07:31;8.88;;;6.13;;
59263;SDS011;45030;42.720;23.344;2022-08-21T08:09:57;7.32;;;5.43;;
59263;SDS011;45030;42.720;23.344;2022-08-21T08:12:23;8.70;;;6.30;;
59263;SDS011;45030;42.720;23.344;2022-08-21T08:14:54;8.32;;;6.03;;
59263;SDS011;45030;42.720;23.344;2022-08-21T08:17:19;8.70;;;5.13;;
59263;SDS011;45030;42.720;23.344;2022-08-21T08:19:48;8.60;;;5.60;;
59263;SDS011;45030;42.720;23.344;2022-08-21T08:22:15;8.27;;;6.20;;
59263;SDS011;45030;42.720;23.344;2022-08-21T08:24:41;9.25;;;6.07;;
59263;SDS011;45030;42.720;23.344;2022-08-21T08:27:07;8.82;;;6.28;;
59263;SDS011;45030;42.720;23.344;2022-08-21T08:29:32;12.38;;;7.53;;
59263;SDS011;45030;42.720;23.344;2022-08-21T08:31:57;7.05;;;5.35;;
59263;SDS011;45030;42.720;23.344;2022-08-21T08:34:23;10.05;;;6.35;;
59263;SDS011;45030;42.720;23.344;2022-08-21T08:36:48;8.73;;;5.85;;
59263;SDS011;45030;42.720;23.344;2022-08-21T08:39:13;15.55;;;8.07;;
59263;SDS011;45030;42.720;23.344;2022-08-21T08:41:38;20.50;;;10.97;;
59263;SDS011;45030;42.720;23.344;2022-08-21T08:44:05;13.60;;;8.32;;
59263;SDS011;45030;42.720;23.344;2022-08-21T08:46:39;11.38;;;6.90;;
59263;SDS011;45030;42.720;23.344;2022-08-21T08:53:59;8.27;;;5.15;;
59263;SDS011;45030;42.720;23.344;2022-08-21T08:56:28;9.02;;;5.60;;
59263;SDS011;45030;42.720;23.344;2022-08-21T08:58:55;8.75;;;5.47;;
59263;SDS011;45030;42.720;23.344;2022-08-21T09:01:21;10.13;;;5.10;;
59263;SDS011;45030;42.720;23.344;2022-08-21T09:03:46;10.80;;;5.00;;
59263;SDS011;45030;42.720;23.344;2022-08-21T09:11:24;10.85;;;5.60;;
59263;SDS011;45030;42.720;23.344;2022-08-21T09:13:58;10.00;;;4.82;;
59263;SDS011;45030;42.720;23.344;2022-08-21T09:18:58;9.57;;;5.20;;
59263;SDS011;45030;42.720;23.344;2022-08-21T09:21:43;8.33;;;4.37;;
59263;SDS011;45030;42.720;23.344;2022-08-21T09:29:21;11.67;;;4.27;;
59263;SDS011;45030;42.720;23.344;2022-08-21T09:31:48;8.43;;;4.25;;
59263;SDS011;45030;42.720;23.344;2022-08-21T09:34:23;8.77;;;4.35;;
59263;SDS011;45030;42.720;23.344;2022-08-21T09:36:49;10.43;;;5.28;;
59263;SDS011;45030;42.720;23.344;2022-08-21T09:39:28;7.75;;;4.38;;
59263;SDS011;45030;42.720;23.344;2022-08-21T09:41:55;8.13;;;4.28;;
59263;SDS011;45030;42.720;23.344;2022-08-21T09:44:24;9.93;;;4.28;;
59263;SDS011;45030;42.720;23.344;2022-08-21T09:46:50;6.90;;;4.40;;
59263;SDS011;45030;42.720;23.344;2022-08-21T09:49:25;7.75;;;4.50;;
59263;SDS011;45030;42.720;23.344;2022-08-21T09:51:51;6.72;;;3.95;;
59263;SDS011;45030;42.720;23.344;2022-08-21T09:54:17;6.65;;;2.42;;
59263;SDS011;45030;42.720;23.344;2022-08-21T09:57:00;6.75;;;3.45;;
59263;SDS011;45030;42.720;23.344;2022-08-21T09:59:44;7.50;;;3.35;;
59263;SDS011;45030;42.720;23.344;2022-08-21T10:04:51;5.85;;;3.80;;
59263;SDS011;45030;42.720;23.344;2022-08-21T10:07:19;7.15;;;3.75;;
59263;SDS011;45030;42.720;23.344;2022-08-21T10:09:44;5.18;;;3.33;;
59263;SDS011;45030;42.720;23.344;2022-08-21T10:12:13;5.13;;;3.58;;
59263;SDS011;45030;42.720;23.344;2022-08-21T10:17:43;5.60;;;3.90;;
59263;SDS011;45030;42.720;23.344;2022-08-21T10:23:06;8.68;;;3.88;;
59263;SDS011;45030;42.720;23.344;2022-08-21T10:25:33;8.60;;;4.03;;
59263;SDS011;45030;42.720;23.344;2022-08-21T10:33:28;7.05;;;3.47;;
59263;SDS011;45030;42.720;23.344;2022-08-21T10:48:47;6.45;;;2.85;;
59263;SDS011;45030;42.720;23.344;2022-08-21T10:51:16;7.50;;;3.08;;
59263;SDS011;45030;42.720;23.344;2022-08-21T10:56:19;5.50;;;2.90;;
59263;SDS011;45030;42.720;23.344;2022-08-21T10:59:15;5.72;;;2.90;;
59263;SDS011;45030;42.720;23.344;2022-08-21T11:01:36;5.68;;;2.78;;
59263;SDS011;45030;42.720;23.344;2022-08-21T11:04:09;6.03;;;2.80;;
59263;SDS011;45030;42.720;23.344;2022-08-21T11:06:36;7.75;;;2.78;;
59263;SDS011;45030;42.720;23.344;2022-08-21T11:09:13;5.43;;;2.55;;
59263;SDS011;45030;42.720;23.344;2022-08-21T11:11:41;6.75;;;2.90;;
59263;SDS011;45030;42.720;23.344;2022-08-21T11:14:11;4.45;;;2.90;;
59263;SDS011;45030;42.720;23.344;2022-08-21T11:16:45;6.55;;;3.25;;
59263;SDS011;45030;42.720;23.344;2022-08-21T11:27:24;3.25;;;2.42;;
59263;SDS011;45030;42.720;23.344;2022-08-21T11:29:57;5.03;;;3.08;;
59263;SDS011;45030;42.720;23.344;2022-08-21T11:35:01;5.57;;;2.97;;
59263;SDS011;45030;42.720;23.344;2022-08-21T11:45:22;6.00;;;2.83;;
59263;SDS011;45030;42.720;23.344;2022-08-21T11:47:56;5.20;;;2.72;;
59263;SDS011;45030;42.720;23.344;2022-08-21T11:50:28;5.57;;;2.70;;
59263;SDS011;45030;42.720;23.344;2022-08-21T11:53:39;6.82;;;2.85;;
59263;SDS011;45030;42.720;23.344;2022-08-21T12:03:13;4.60;;;2.80;;
59263;SDS011;45030;42.720;23.344;2022-08-21T12:05:41;17.40;;;12.23;;
59263;SDS011;45030;42.720;23.344;2022-08-21T12:10:38;8.57;;;3.83;;
59263;SDS011;45030;42.720;23.344;2022-08-21T12:13:26;8.77;;;3.88;;
59263;SDS011;45030;42.720;23.344;2022-08-21T12:15:50;6.75;;;3.90;;
59263;SDS011;45030;42.720;23.344;2022-08-21T12:20:45;7.07;;;4.00;;
59263;SDS011;45030;42.720;23.344;2022-08-21T12:23:26;6.30;;;3.58;;
59263;SDS011;45030;42.720;23.344;2022-08-21T12:26:14;6.57;;;3.60;;
59263;SDS011;45030;42.720;23.344;2022-08-21T12:28:41;5.28;;;3.65;;
59263;SDS011;45030;42.720;23.344;2022-08-21T12:31:23;4.95;;;3.67;;
59263;SDS011;45030;42.720;23.344;2022-08-21T12:33:50;6.50;;;4.30;;
59263;SDS011;45030;42.720;23.344;2022-08-21T12:36:20;5.72;;;3.50;;
59263;SDS011;45030;42.720;23.344;2022-08-21T12:41:21;6.30;;;3.70;;
59263;SDS011;45030;42.720;23.344;2022-08-21T12:43:57;9.43;;;4.00;;
59263;SDS011;45030;42.720;23.344;2022-08-21T12:48:52;5.83;;;3.53;;
59263;SDS011;45030;42.720;23.344;2022-08-21T12:51:24;6.05;;;3.50;;
59263;SDS011;45030;42.720;23.344;2022-08-21T12:53:57;6.43;;;3.83;;
59263;SDS011;45030;42.720;23.344;2022-08-21T12:56:24;7.75;;;3.05;;
59263;SDS011;45030;42.720;23.344;2022-08-21T12:58:51;5.53;;;3.60;;
59263;SDS011;45030;42.720;23.344;2022-08-21T13:03:42;4.83;;;2.60;;
59263;SDS011;45030;42.720;23.344;2022-08-21T13:06:11;5.00;;;3.05;;
59263;SDS011;45030;42.720;23.344;2022-08-21T13:08:38;5.82;;;2.80;;
59263;SDS011;45030;42.720;23.344;2022-08-21T13:11:04;6.28;;;3.40;;
59263;SDS011;45030;42.720;23.344;2022-08-21T13:13:31;6.60;;;3.97;;
59263;SDS011;45030;42.720;23.344;2022-08-21T13:16:04;8.95;;;4.10;;
59263;SDS011;45030;42.720;23.344;2022-08-21T13:18:31;24.55;;;16.73;;
59263;SDS011;45030;42.720;23.344;2022-08-21T13:21:07;46.42;;;24.60;;
59263;SDS011;45030;42.720;23.344;2022-08-21T13:25:58;6.83;;;3.63;;
59263;SDS011;45030;42.720;23.344;2022-08-21T13:28:24;7.00;;;3.80;;
59263;SDS011;45030;42.720;23.344;2022-08-21T13:30:58;6.22;;;3.10;;
59263;SDS011;45030;42.720;23.344;2022-08-21T13:33:26;7.57;;;4.03;;
59263;SDS011;45030;42.720;23.344;2022-08-21T13:38:20;9.43;;;4.90;;
59263;SDS011;45030;42.720;23.344;2022-08-21T13:40:48;6.20;;;3.90;;
59263;SDS011;45030;42.720;23.344;2022-08-21T13:43:15;5.00;;;2.50;;
59263;SDS011;45030;42.720;23.344;2022-08-21T13:45:43;5.50;;;2.65;;
59263;SDS011;45030;42.720;23.344;2022-08-21T13:48:09;5.97;;;4.25;;
59263;SDS011;45030;42.720;23.344;2022-08-21T13:50:35;5.68;;;3.40;;
59263;SDS011;45030;42.720;23.344;2022-08-21T13:53:03;7.90;;;3.45;;
59263;SDS011;45030;42.720;23.344;2022-08-21T13:55:37;8.55;;;3.65;;
59263;SDS011;45030;42.720;23.344;2022-08-21T13:58:03;7.63;;;3.17;;
59263;SDS011;45030;42.720;23.344;2022-08-21T14:00:30;7.57;;;3.15;;
59263;SDS011;45030;42.720;23.344;2022-08-21T14:03:00;4.32;;;3.30;;
59263;SDS011;45030;42.720;23.344;2022-08-21T14:05:27;7.05;;;3.00;;
59263;SDS011;45030;42.720;23.344;2022-08-21T14:08:04;8.23;;;3.03;;
59263;SDS011;45030;42.720;23.344;2022-08-21T14:10:30;5.07;;;3.65;;
59263;SDS011;45030;42.720;23.344;2022-08-21T14:12:59;5.60;;;2.72;;
59263;SDS011;45030;42.720;23.344;2022-08-21T14:15:27;6.93;;;3.70;;
59263;SDS011;45030;42.720;23.344;2022-08-21T14:17:53;7.60;;;3.42;;
59263;SDS011;45030;42.720;23.344;2022-08-21T14:20:30;4.50;;;3.47;;
59263;SDS011;45030;42.720;23.344;2022-08-21T14:22:55;6.30;;;3.35;;
59263;SDS011;45030;42.720;23.344;2022-08-21T14:27:54;8.00;;;4.10;;
59263;SDS011;45030;42.720;23.344;2022-08-21T14:32:44;6.37;;;4.17;;
59263;SDS011;45030;42.720;23.344;2022-08-21T14:35:10;6.03;;;3.72;;
59263;SDS011;45030;42.720;23.344;2022-08-21T14:37:35;7.03;;;4.15;;
59263;SDS011;45030;42.720;23.344;2022-08-21T14:40:01;8.98;;;4.15;;
59263;SDS011;45030;42.720;23.344;2022-08-21T14:42:27;5.72;;;3.83;;
59263;SDS011;45030;42.720;23.344;2022-08-21T14:44:53;5.70;;;3.30;;
59263;SDS011;45030;42.720;23.344;2022-08-21T14:47:19;7.88;;;3.75;;
59263;SDS011;45030;42.720;23.344;2022-08-21T14:49:44;6.15;;;3.90;;
59263;SDS011;45030;42.720;23.344;2022-08-21T14:52:10;7.88;;;3.35;;
59263;SDS011;45030;42.720;23.344;2022-08-21T14:54:35;7.18;;;3.85;;
59263;SDS011;45030;42.720;23.344;2022-08-21T14:57:08;6.93;;;3.63;;
59263;SDS011;45030;42.720;23.344;2022-08-21T14:59:34;7.22;;;3.92;;
59263;SDS011;45030;42.720;23.344;2022-08-21T15:01:59;5.45;;;3.30;;
59263;SDS011;45030;42.720;23.344;2022-08-21T15:04:25;7.68;;;4.18;;
59263;SDS011;45030;42.720;23.344;2022-08-21T15:06:50;6.03;;;3.30;;
59263;SDS011;45030;42.720;23.344;2022-08-21T15:09:15;5.80;;;3.90;;
59263;SDS011;45030;42.720;23.344;2022-08-21T15:11:41;6.45;;;3.63;;
59263;SDS011;45030;42.720;23.344;2022-08-21T15:14:06;7.32;;;3.25;;
59263;SDS011;45030;42.720;23.344;2022-08-21T15:16:32;8.05;;;3.88;;
59263;SDS011;45030;42.720;23.344;2022-08-21T15:18:58;7.22;;;4.15;;
59263;SDS011;45030;42.720;23.344;2022-08-21T15:21:24;5.72;;;3.58;;
59263;SDS011;45030;42.720;23.344;2022-08-21T15:23:49;6.57;;;4.18;;
59263;SDS011;45030;42.720;23.344;2022-08-21T15:26:16;7.13;;;4.22;;
59263;SDS011;45030;42.720;23.344;2022-08-21T15:28:42;7.18;;;3.30;;
59263;SDS011;45030;42.720;23.344;2022-08-21T15:31:07;6.90;;;4.18;;
59263;SDS011;45030;42.720;23.344;2022-08-21T15:33:33;7.32;;;3.58;;
59263;SDS011;45030;42.720;23.344;2022-08-21T15:35:58;6.35;;;3.58;;
59263;SDS011;45030;42.720;23.344;2022-08-21T15:38:24;7.40;;;4.60;;
59263;SDS011;45030;42.720;23.344;2022-08-21T15:40:49;8.65;;;4.43;;
59263;SDS011;45030;42.720;23.344;2022-08-21T15:43:28;7.50;;;4.10;;
59263;SDS011;45030;42.720;23.344;2022-08-21T15:45:53;7.93;;;4.35;;
59263;SDS011;45030;42.720;23.344;2022-08-21T15:48:19;5.40;;;3.50;;
59263;SDS011;45030;42.720;23.344;2022-08-21T15:50:44;6.13;;;3.90;;
59263;SDS011;45030;42.720;23.344;2022-08-21T15:53:10;8.07;;;3.67;;
59263;SDS011;45030;42.720;23.344;2022-08-21T15:55:35;8.25;;;4.85;;
59263;SDS011;45030;42.720;23.344;2022-08-21T15:58:00;9.23;;;3.97;;
59263;SDS011;45030;42.720;23.344;2022-08-21T16:00:26;6.75;;;4.10;;